Klondike, Georgia
Current Conditions -  °F | °C
As of 7:15 AM on Friday 28 Nov 2014 (Local Time) from KPXE Reporting Station
Clear Clear  
Wind Chill: 27°   Ceiling: Unl
Heat Index: 32°   Visibility: 10mi
Dew Point: 27°   Wind: 5mph
Humidity: 80%   Direction: 300°WNW
Pressure: 30.41"   Gusts: NA
Location:  32.2568°N, 83.5362°W
Report Text: KPXE 281215Z AUTO 30004KT 10SM CLR 00/M03 A3041 RMK AO2 T00001030
Loading
Personal Weather Stations






























Interactive Weather Map New forecast layout! Learn more

10-Day Weather Forecast

Advertisements
Track Severe Weather on mobile